createdAt,value
2018-05-18T00:02:14.637Z,99.10
2018-05-18T00:04:41.357Z,99.60
2018-05-18T00:07:07.916Z,99.90
2018-05-18T00:09:34.552Z,99.90
2018-05-18T00:12:01.393Z,99.90
2018-05-18T00:14:28.099Z,99.90
2018-05-18T00:16:54.769Z,99.90
2018-05-18T00:19:21.508Z,99.50
2018-05-18T00:21:48.130Z,99.50
2018-05-18T00:24:14.885Z,99.50
2018-05-18T00:27:14.990Z,99.40
2018-05-18T00:29:41.595Z,99.60
2018-05-18T00:32:08.995Z,99.80
2018-05-18T00:34:35.610Z,99.80
2018-05-18T00:37:02.240Z,99.90
2018-05-18T00:39:29.016Z,99.80
2018-05-18T00:41:55.748Z,99.90
2018-05-18T00:44:22.332Z,99.90
2018-05-18T00:46:49.844Z,99.90
2018-05-18T00:49:16.584Z,99.90
2018-05-18T00:51:43.219Z,99.90
2018-05-18T00:54:09.961Z,99.90
2018-05-18T00:56:36.598Z,99.90
2018-05-18T00:59:03.184Z,99.90
2018-05-18T01:01:30.565Z,99.70
2018-05-18T01:03:57.186Z,99.70
2018-05-18T01:06:23.968Z,99.60
2018-05-18T01:08:50.682Z,99.60
2018-05-18T01:11:17.421Z,99.50
2018-05-18T01:13:44.037Z,99.60
2018-05-18T01:16:17.610Z,99.60
2018-05-18T01:18:44.319Z,99.60
2018-05-18T01:21:11.165Z,99.70
2018-05-18T01:23:37.887Z,99.70
2018-05-18T01:26:04.745Z,99.90
2018-05-18T01:28:31.356Z,99.90
2018-05-18T01:30:58.120Z,99.80
2018-05-18T01:33:24.964Z,99.90
2018-05-18T01:35:51.574Z,99.90
2018-05-18T01:38:18.239Z,99.90
2018-05-18T01:40:44.955Z,99.90
2018-05-18T01:43:11.613Z,99.90
2018-05-18T01:45:38.329Z,99.90
2018-05-18T01:48:04.993Z,99.90
2018-05-18T01:50:31.640Z,99.90
2018-05-18T01:52:58.370Z,99.90
2018-05-18T01:55:25.080Z,99.90
2018-05-18T01:57:51.651Z,99.90
2018-05-18T02:00:18.384Z,99.90
2018-05-18T02:02:45.092Z,99.90
2018-05-18T02:05:11.658Z,99.90
2018-05-18T02:07:38.282Z,99.90
2018-05-18T02:10:05.116Z,99.90
2018-05-18T02:12:31.777Z,99.90
2018-05-18T02:14:58.512Z,99.90
2018-05-18T02:17:25.115Z,99.90
2018-05-18T02:19:51.866Z,99.90
2018-05-18T02:22:18.580Z,99.90
2018-05-18T02:24:45.249Z,99.90
2018-05-18T02:27:11.901Z,99.90
2018-05-18T02:29:38.640Z,99.90
2018-05-18T02:32:05.262Z,99.90
2018-05-18T02:34:31.991Z,99.90
2018-05-18T02:36:59.448Z,99.90
2018-05-18T02:39:26.059Z,99.80
2018-05-18T02:41:53.474Z,99.70
2018-05-18T02:44:20.923Z,99.90
2018-05-18T02:46:47.545Z,99.90
2018-05-18T02:49:14.197Z,99.90
2018-05-18T02:51:40.840Z,99.90
2018-05-18T02:54:07.433Z,99.90
2018-05-18T02:56:34.099Z,99.90
2018-05-18T02:59:00.841Z,99.90
2018-05-18T03:01:27.473Z,99.80
2018-05-18T03:03:54.228Z,99.90
2018-05-18T03:06:20.965Z,99.90
2018-05-18T03:08:47.574Z,99.90
2018-05-18T03:11:14.239Z,99.90
2018-05-18T03:13:40.948Z,99.90
2018-05-18T03:16:07.722Z,99.90
2018-05-18T03:18:34.460Z,99.90
2018-05-18T03:21:01.303Z,99.90
2018-05-18T03:23:28.018Z,99.90
2018-05-18T03:25:54.632Z,99.90
2018-05-18T03:28:22.033Z,99.90
2018-05-18T03:30:48.707Z,99.90
2018-05-18T03:33:16.228Z,99.90
2018-05-18T03:35:42.863Z,99.90
2018-05-18T03:38:09.606Z,99.90
2018-05-18T03:40:36.450Z,99.90
2018-05-18T03:43:03.287Z,99.90
2018-05-18T03:45:29.901Z,99.90
2018-05-18T03:47:56.541Z,99.90
2018-05-18T03:50:23.180Z,99.90
2018-05-18T03:52:49.942Z,99.90
2018-05-18T03:55:16.681Z,99.90
2018-05-18T03:57:43.316Z,99.90
2018-05-18T04:00:10.059Z,99.90
2018-05-18T04:02:48.778Z,99.90
2018-05-18T04:05:27.803Z,99.90
2018-05-18T04:08:06.835Z,99.90
2018-05-18T04:10:33.571Z,99.90
2018-05-18T04:13:00.207Z,99.90
2018-05-18T04:15:26.951Z,99.90
2018-05-18T04:17:53.687Z,99.90
2018-05-18T04:20:20.276Z,99.90
2018-05-18T04:22:47.041Z,99.90
2018-05-18T04:25:13.684Z,99.90
2018-05-18T04:27:40.438Z,99.90
2018-05-18T04:30:07.172Z,99.90
2018-05-18T04:32:34.028Z,99.90
2018-05-18T04:35:00.732Z,99.90
2018-05-18T04:37:27.360Z,99.90
2018-05-18T04:39:54.256Z,99.90
2018-05-18T04:42:20.903Z,99.90
2018-05-18T04:44:47.617Z,99.90
2018-05-18T04:47:14.224Z,99.90
2018-05-18T04:49:40.865Z,99.90
2018-05-18T04:52:07.632Z,99.90
2018-05-18T04:54:34.269Z,99.90
2018-05-18T04:57:00.996Z,99.90
2018-05-18T04:59:27.700Z,99.90
2018-05-18T05:01:55.209Z,99.90
2018-05-18T05:04:22.027Z,99.90
2018-05-18T05:06:49.324Z,99.90
2018-05-18T05:09:16.123Z,99.90
2018-05-18T05:11:42.857Z,99.90
2018-05-18T05:14:09.521Z,99.90
2018-05-18T05:16:36.260Z,99.90
2018-05-18T05:19:03.101Z,99.90
2018-05-18T05:21:29.842Z,99.90
2018-05-18T05:23:56.478Z,99.90
2018-05-18T05:26:23.080Z,99.90
2018-05-18T05:28:49.757Z,99.90
2018-05-18T05:31:16.339Z,99.90
2018-05-18T05:33:43.816Z,99.90
2018-05-18T05:36:10.559Z,99.90
2018-05-18T05:38:37.227Z,99.90
2018-05-18T05:41:03.936Z,99.90
2018-05-18T05:43:30.706Z,99.90
2018-05-18T05:45:57.308Z,99.90
2018-05-18T05:48:23.977Z,99.90
2018-05-18T05:50:50.715Z,99.90
2018-05-18T05:53:17.300Z,99.90
2018-05-18T05:55:44.680Z,99.90
2018-05-18T05:58:11.348Z,99.90
2018-05-18T06:00:37.984Z,99.90
2018-05-18T06:03:04.698Z,99.90
2018-05-18T06:05:31.360Z,99.90
2018-05-18T06:07:57.983Z,99.80
2018-05-18T06:10:24.608Z,99.90
2018-05-18T06:12:51.268Z,99.80
2018-05-18T06:15:17.872Z,99.90
2018-05-18T06:17:44.592Z,99.90
2018-05-18T06:20:12.000Z,99.90
2018-05-18T06:22:38.588Z,99.90
2018-05-18T06:25:05.993Z,99.80
2018-05-18T06:27:32.630Z,99.80
2018-05-18T06:29:59.340Z,99.70
2018-05-18T06:32:26.004Z,99.50
2018-05-18T06:34:52.656Z,99.40
2018-05-18T06:37:19.462Z,99.20
2018-05-18T06:39:46.029Z,98.80
2018-05-18T06:42:12.767Z,98.50
2018-05-18T06:44:39.502Z,98.70
2018-05-18T06:47:06.135Z,98.30
2018-05-18T06:49:32.707Z,98.30
2018-05-18T06:51:59.513Z,97.90
2018-05-18T06:54:26.148Z,98.30
2018-05-18T06:56:52.892Z,98.10
2018-05-18T06:59:19.480Z,97.40
2018-05-18T07:01:46.985Z,97.00
2018-05-18T07:04:13.694Z,97.00
2018-05-18T07:06:41.176Z,97.00
2018-05-18T07:09:07.768Z,96.90
2018-05-18T07:11:35.169Z,96.90
2018-05-18T07:14:01.780Z,96.80
2018-05-18T07:16:28.551Z,97.00
2018-05-18T07:18:55.072Z,97.70
2018-05-18T07:21:21.729Z,98.50
2018-05-18T07:23:48.303Z,98.30
2018-05-18T07:26:15.688Z,99.40
2018-05-18T07:28:42.344Z,99.40
2018-05-18T07:31:09.057Z,99.60
2018-05-18T07:33:35.723Z,99.30
2018-05-18T07:36:02.363Z,99.10
2018-05-18T07:38:29.100Z,98.80
2018-05-18T07:40:55.708Z,98.50
2018-05-18T07:43:22.333Z,98.80
2018-05-18T07:45:48.939Z,99.00
2018-05-18T07:48:15.652Z,99.20
2018-05-18T07:50:42.232Z,99.00
2018-05-18T07:53:09.612Z,98.70
2018-05-18T07:55:36.279Z,98.70
2018-05-18T07:58:02.988Z,99.10
2018-05-18T08:00:29.654Z,98.90
2018-05-18T08:02:56.501Z,98.90
2018-05-18T08:05:23.348Z,98.90
2018-05-18T08:07:50.214Z,98.80
2018-05-18T08:10:17.740Z,99.30
2018-05-18T08:12:44.380Z,99.10
2018-05-18T08:15:11.099Z,98.90
2018-05-18T08:17:38.678Z,98.70
2018-05-18T08:20:05.623Z,98.70
2018-05-18T08:22:32.337Z,98.30
2018-05-18T08:24:59.000Z,98.50
2018-05-18T08:27:25.735Z,99.20
2018-05-18T08:29:52.585Z,98.70
2018-05-18T08:32:19.423Z,97.80
2018-05-18T08:34:46.146Z,97.90
2018-05-18T08:37:13.006Z,98.50
2018-05-18T08:39:39.744Z,98.70
2018-05-18T08:42:06.485Z,98.50
2018-05-18T08:44:33.188Z,99.10
2018-05-18T08:46:59.964Z,99.00
2018-05-18T08:49:26.700Z,98.40
2018-05-18T08:51:53.443Z,98.10
2018-05-18T08:54:20.289Z,97.90
2018-05-18T08:56:47.023Z,97.90
2018-05-18T08:59:13.763Z,98.20
2018-05-18T09:01:40.608Z,99.20
2018-05-18T09:04:07.230Z,99.30
2018-05-18T09:06:33.980Z,99.00
2018-05-18T09:09:00.723Z,98.60
2018-05-18T09:11:27.461Z,98.50
2018-05-18T09:13:54.204Z,98.20
2018-05-18T09:16:21.044Z,97.80
2018-05-18T09:18:47.782Z,98.00
2018-05-18T09:21:14.624Z,97.70
2018-05-18T09:23:41.362Z,97.30
2018-05-18T09:26:08.045Z,98.00
2018-05-18T09:28:35.365Z,99.90
2018-05-18T09:31:02.201Z,99.90
2018-05-18T09:33:29.041Z,99.90
2018-05-18T09:35:55.674Z,99.60
2018-05-18T09:38:22.414Z,99.00
2018-05-18T09:40:49.154Z,98.20
2018-05-18T09:43:16.106Z,98.70
2018-05-18T09:45:42.692Z,99.10
2018-05-18T09:48:10.195Z,97.00
2018-05-18T09:50:36.931Z,97.00
2018-05-18T09:53:03.655Z,96.80
2018-05-18T09:55:30.473Z,96.80
2018-05-18T09:57:57.867Z,96.60
2018-05-18T10:00:24.709Z,96.60
2018-05-18T10:02:51.555Z,95.90
2018-05-18T10:05:18.265Z,95.70
2018-05-18T10:07:44.896Z,95.40
2018-05-18T10:10:11.568Z,94.70
2018-05-18T10:12:38.308Z,94.70
2018-05-18T10:15:05.051Z,96.70
2018-05-18T10:17:31.900Z,98.40
2018-05-18T10:19:58.728Z,98.60
2018-05-18T10:22:26.290Z,97.50
2018-05-18T10:24:53.129Z,97.50
2018-05-18T10:27:19.988Z,97.90
2018-05-18T10:29:46.710Z,97.20
2018-05-18T10:32:13.420Z,96.10
2018-05-18T10:34:40.067Z,95.70
2018-05-18T10:37:06.724Z,95.40
2018-05-18T10:39:33.600Z,95.50
2018-05-18T10:42:01.232Z,96.70
2018-05-18T10:44:27.866Z,96.60
2018-05-18T10:46:54.605Z,96.60
2018-05-18T10:49:21.604Z,97.00
2018-05-18T10:51:49.109Z,96.40
2018-05-18T10:54:15.851Z,96.40
2018-05-18T10:56:42.492Z,96.60
2018-05-18T10:59:09.225Z,96.90
2018-05-18T11:01:35.964Z,97.70
2018-05-18T11:04:02.799Z,98.00
2018-05-18T11:06:29.545Z,98.30
2018-05-18T11:08:56.288Z,98.00
2018-05-18T11:11:23.131Z,97.60
2018-05-18T11:13:49.875Z,98.40
2018-05-18T11:16:16.576Z,98.70
2018-05-18T11:18:43.555Z,98.70
2018-05-18T11:21:10.298Z,98.40
2018-05-18T11:23:37.136Z,97.90
2018-05-18T11:26:04.082Z,97.80
2018-05-18T11:28:30.794Z,97.80
2018-05-18T11:30:57.457Z,98.90
2018-05-18T11:33:24.303Z,97.80
2018-05-18T11:35:51.036Z,98.80
2018-05-18T11:38:17.775Z,98.30
2018-05-18T11:40:44.621Z,97.90
2018-05-18T11:43:11.571Z,98.00
2018-05-18T11:45:38.200Z,98.10
2018-05-18T11:48:04.906Z,98.00
2018-05-18T11:50:32.500Z,99.10
2018-05-18T11:52:59.240Z,99.40
2018-05-18T11:55:26.082Z,99.50
2018-05-18T11:57:52.923Z,99.50
2018-05-18T12:00:19.772Z,98.20
2018-05-18T12:02:46.526Z,98.60
2018-05-18T12:05:14.064Z,98.90
2018-05-18T12:07:40.907Z,98.70
2018-05-18T12:10:07.524Z,99.60
2018-05-18T12:12:34.149Z,99.00
2018-05-18T12:15:00.827Z,99.00
2018-05-18T12:17:27.562Z,99.40
2018-05-18T12:19:54.191Z,99.30
2018-05-18T12:22:21.038Z,98.70
2018-05-18T12:24:47.772Z,99.60
2018-05-18T12:27:14.372Z,99.90
2018-05-18T12:29:41.157Z,99.90
2018-05-18T12:32:07.963Z,99.90
2018-05-18T12:34:34.536Z,99.90
2018-05-18T12:37:01.271Z,99.90
2018-05-18T12:39:27.922Z,99.90
2018-05-18T12:41:54.613Z,99.90
2018-05-18T12:44:21.566Z,99.90
2018-05-18T12:46:49.045Z,99.90
2018-05-18T12:49:15.990Z,99.90
2018-05-18T12:51:42.937Z,99.90
2018-05-18T12:54:09.837Z,99.90
2018-05-18T12:56:37.236Z,99.90
2018-05-18T12:59:03.981Z,99.90
2018-05-18T13:01:30.818Z,99.90
2018-05-18T13:03:57.660Z,99.90
2018-05-18T13:06:25.935Z,99.90
2018-05-18T13:08:52.656Z,99.90
2018-05-18T13:11:19.517Z,99.90
2018-05-18T13:13:46.258Z,99.90
2018-05-18T13:16:12.993Z,99.90
2018-05-18T13:18:39.841Z,99.90
2018-05-18T13:21:06.575Z,99.90
2018-05-18T13:23:33.157Z,99.90
2018-05-18T13:26:00.524Z,99.90
2018-05-18T13:28:27.924Z,99.90
2018-05-18T13:30:54.556Z,99.90
2018-05-18T13:33:21.135Z,99.90
2018-05-18T13:35:48.521Z,99.90
2018-05-18T13:38:15.386Z,99.90
2018-05-18T13:40:42.027Z,99.90
2018-05-18T13:43:08.642Z,99.90
2018-05-18T13:45:35.302Z,99.90
2018-05-18T13:48:02.041Z,99.90
2018-05-18T13:50:28.780Z,99.90
2018-05-18T13:52:55.404Z,99.90
2018-05-18T13:55:22.157Z,99.90
2018-05-18T13:57:48.899Z,99.90
2018-05-18T14:00:15.638Z,99.90
2018-05-18T14:02:42.628Z,99.90
2018-05-18T14:05:10.017Z,99.90
2018-05-18T14:07:36.653Z,99.90
2018-05-18T14:10:03.402Z,99.90
2018-05-18T14:12:30.257Z,99.90
2018-05-18T14:14:57.101Z,99.90
2018-05-18T14:17:23.829Z,99.90
2018-05-18T14:19:50.577Z,99.90
2018-05-18T14:22:17.522Z,99.90
2018-05-18T14:24:44.092Z,99.90
2018-05-18T14:27:10.975Z,99.90
2018-05-18T14:29:37.639Z,99.90
2018-05-18T14:32:04.276Z,99.90
2018-05-18T14:34:31.001Z,99.90
2018-05-18T14:36:57.628Z,99.70
2018-05-18T14:39:24.292Z,99.50
2018-05-18T14:41:51.004Z,99.30
2018-05-18T14:44:17.769Z,99.20
2018-05-18T14:46:44.612Z,98.70
2018-05-18T14:49:11.248Z,97.60
2018-05-18T14:51:37.845Z,98.20
2018-05-18T14:54:05.227Z,97.90
2018-05-18T14:56:32.185Z,97.90
2018-05-18T14:58:58.825Z,97.40
2018-05-18T15:01:25.415Z,97.70
2018-05-18T15:03:52.917Z,98.60
2018-05-18T15:06:19.758Z,98.50
2018-05-18T15:08:46.498Z,98.40
2018-05-18T15:11:13.212Z,98.70
2018-05-18T15:13:40.079Z,99.10
2018-05-18T15:16:06.792Z,98.90
2018-05-18T15:18:33.436Z,98.80
2018-05-18T15:21:00.906Z,97.50
2018-05-18T15:23:27.653Z,97.50
2018-05-18T15:25:54.274Z,97.60
2018-05-18T15:28:21.034Z,97.70
2018-05-18T15:30:47.652Z,97.70
2018-05-18T15:33:14.507Z,97.80
2018-05-18T15:35:41.105Z,97.70
2018-05-18T15:38:07.700Z,97.40
2018-05-18T15:40:34.288Z,97.80
2018-05-18T15:43:01.033Z,97.60
2018-05-18T15:45:28.311Z,98.20
2018-05-18T15:47:55.034Z,98.20
2018-05-18T15:50:21.686Z,98.00
2018-05-18T15:52:48.260Z,98.20
2018-05-18T15:55:15.619Z,98.50
2018-05-18T15:57:43.235Z,98.30
2018-05-18T16:00:09.949Z,98.30
2018-05-18T16:02:36.585Z,97.60
2018-05-18T16:05:03.355Z,98.00
2018-05-18T16:07:30.091Z,98.30
2018-05-18T16:09:56.705Z,98.00
2018-05-18T16:12:23.473Z,98.10
2018-05-18T16:14:50.081Z,98.20
2018-05-18T16:17:16.653Z,98.30
2018-05-18T16:19:43.352Z,98.40
2018-05-18T16:22:09.937Z,99.00
2018-05-18T16:24:36.551Z,99.30
2018-05-18T16:27:03.167Z,99.20
2018-05-18T16:29:29.826Z,99.00
2018-05-18T16:31:56.463Z,99.10
2018-05-18T16:34:23.142Z,98.60
2018-05-18T16:36:50.512Z,99.30
2018-05-18T16:39:17.869Z,98.80
2018-05-18T16:41:44.516Z,98.80
2018-05-18T16:44:11.265Z,98.30
2018-05-18T16:46:37.853Z,97.90
2018-05-18T16:49:04.645Z,98.50
2018-05-18T16:51:31.240Z,98.30
2018-05-18T16:53:58.629Z,98.20
2018-05-18T16:56:25.294Z,98.10
2018-05-18T16:58:52.048Z,98.30
2018-05-18T17:01:18.644Z,98.00
2018-05-18T17:03:45.219Z,98.10
2018-05-18T17:06:13.457Z,98.50
2018-05-18T17:08:40.093Z,98.50
2018-05-18T17:11:06.829Z,98.80
2018-05-18T17:13:33.493Z,98.90
2018-05-18T17:16:00.133Z,98.80
2018-05-18T17:18:26.972Z,99.00
2018-05-18T17:20:53.614Z,98.80
2018-05-18T17:23:20.249Z,99.00
2018-05-18T17:25:46.934Z,98.90
2018-05-18T17:28:13.627Z,99.00
2018-05-18T17:30:40.460Z,99.20
2018-05-18T17:33:07.174Z,99.30
2018-05-18T17:35:33.818Z,99.20
2018-05-18T17:38:00.401Z,99.30
2018-05-18T17:40:27.016Z,99.50
2018-05-18T17:42:53.733Z,99.40
2018-05-18T17:45:20.320Z,99.50
2018-05-18T17:47:46.901Z,99.50
2018-05-18T17:50:13.543Z,99.30
2018-05-18T17:52:40.202Z,99.20
2018-05-18T17:55:06.839Z,99.10
2018-05-18T17:57:33.477Z,98.90
2018-05-18T18:00:00.125Z,98.90
2018-05-18T18:02:26.729Z,98.80
2018-05-18T18:04:53.363Z,99.00
2018-05-18T18:07:20.004Z,99.20
2018-05-18T18:09:47.533Z,99.40
2018-05-18T18:12:14.937Z,99.30
2018-05-18T18:14:41.575Z,99.30
2018-05-18T18:17:09.214Z,99.40
2018-05-18T18:19:35.873Z,98.90
2018-05-18T18:22:02.490Z,98.70
2018-05-18T18:24:29.245Z,98.40
2018-05-18T18:26:55.929Z,98.40
2018-05-18T18:29:22.500Z,98.20
2018-05-18T18:31:49.139Z,98.00
2018-05-18T18:34:15.712Z,98.00
2018-05-18T18:36:42.508Z,97.90
2018-05-18T18:39:09.180Z,98.40
2018-05-18T18:41:35.798Z,98.80
2018-05-18T18:44:02.450Z,99.80
2018-05-18T18:46:29.190Z,99.90
2018-05-18T18:48:55.904Z,99.90
2018-05-18T18:51:22.566Z,99.90
2018-05-18T18:53:49.181Z,99.90
2018-05-18T18:56:16.049Z,99.90
2018-05-18T18:58:42.820Z,99.90
2018-05-18T19:01:09.368Z,99.90
2018-05-18T19:03:36.820Z,99.90
2018-05-18T19:06:04.233Z,99.90
2018-05-18T19:08:30.969Z,99.90
2018-05-18T19:10:57.687Z,99.90
2018-05-18T19:13:24.296Z,99.90
2018-05-18T19:15:51.704Z,99.90
2018-05-18T19:18:18.253Z,99.90
2018-05-18T19:20:44.857Z,99.90
2018-05-18T19:23:11.514Z,99.90
2018-05-18T19:25:38.095Z,99.90
2018-05-18T19:28:05.477Z,99.90
2018-05-18T19:30:32.145Z,99.90
2018-05-18T19:32:58.888Z,99.90
2018-05-18T19:35:25.460Z,99.90
2018-05-18T19:37:52.871Z,99.90
2018-05-18T19:40:19.509Z,99.90
2018-05-18T19:42:46.250Z,99.90
2018-05-18T19:45:12.969Z,99.90
2018-05-18T19:47:40.549Z,99.90
2018-05-18T19:50:07.188Z,99.90
2018-05-18T19:52:33.824Z,99.90
2018-05-18T19:55:00.514Z,99.90
2018-05-18T19:57:27.212Z,99.90
2018-05-18T19:59:53.858Z,99.90
2018-05-18T20:02:20.477Z,99.90
2018-05-18T20:04:47.183Z,99.90
2018-05-18T20:07:14.061Z,99.90
2018-05-18T20:09:40.768Z,99.90
2018-05-18T20:12:07.432Z,99.90
2018-05-18T20:14:34.046Z,99.90
2018-05-18T20:17:00.669Z,99.90
2018-05-18T20:19:27.323Z,99.90
2018-05-18T20:21:54.006Z,99.90
2018-05-18T20:24:20.727Z,99.90
2018-05-18T20:26:47.332Z,99.90
2018-05-18T20:29:14.073Z,99.90
2018-05-18T20:31:40.704Z,99.90
2018-05-18T20:34:07.476Z,99.90
2018-05-18T20:36:34.055Z,99.90
2018-05-18T20:39:01.394Z,99.90
2018-05-18T20:41:27.993Z,99.90
2018-05-18T20:43:54.581Z,99.90
2018-05-18T20:46:21.990Z,99.90
2018-05-18T20:48:48.569Z,99.90
2018-05-18T20:51:15.881Z,99.90
2018-05-18T20:53:42.619Z,99.90
2018-05-18T20:56:09.258Z,99.90
2018-05-18T20:58:36.022Z,99.90
2018-05-18T21:01:02.736Z,99.90
2018-05-18T21:03:29.371Z,99.90
2018-05-18T21:05:55.953Z,99.90
2018-05-18T21:08:23.348Z,99.90
2018-05-18T21:10:49.977Z,99.90
2018-05-18T21:13:16.641Z,99.90
2018-05-18T21:15:43.448Z,99.90
2018-05-18T21:18:10.227Z,99.90
2018-05-18T21:20:36.859Z,99.90
2018-05-18T21:23:03.497Z,99.90
2018-05-18T21:25:30.146Z,99.90
2018-05-18T21:27:56.856Z,99.90
2018-05-18T21:30:23.582Z,99.90
2018-05-18T21:32:56.293Z,99.90
2018-05-18T21:35:23.035Z,99.90
2018-05-18T21:37:49.667Z,99.90
2018-05-18T21:40:16.305Z,99.90
2018-05-18T21:42:42.919Z,99.90
2018-05-18T21:45:09.687Z,99.90
2018-05-18T21:47:36.292Z,99.90
2018-05-18T21:50:03.063Z,99.90
2018-05-18T21:52:29.798Z,99.90
2018-05-18T21:54:56.640Z,99.90
2018-05-18T21:57:23.283Z,99.90
2018-05-18T21:59:50.002Z,99.90
2018-05-18T22:02:16.617Z,99.90
2018-05-18T22:04:43.267Z,99.90
2018-05-18T22:07:09.909Z,99.90
2018-05-18T22:09:36.526Z,99.90
2018-05-18T22:12:04.090Z,99.90
2018-05-18T22:14:30.945Z,99.90
2018-05-18T22:16:57.604Z,99.90
2018-05-18T22:19:24.240Z,99.90
2018-05-18T22:21:50.878Z,99.90
2018-05-18T22:24:17.490Z,99.90
2018-05-18T22:26:44.131Z,99.90
2018-05-18T22:29:10.793Z,99.90
2018-05-18T22:31:37.515Z,99.90
2018-05-18T22:34:04.263Z,99.90
2018-05-18T22:36:30.985Z,99.90
2018-05-18T22:38:57.667Z,99.90
2018-05-18T22:41:24.360Z,99.90
2018-05-18T22:43:51.029Z,99.90
2018-05-18T22:46:17.677Z,99.90
2018-05-18T22:48:44.255Z,99.90
2018-05-18T22:51:10.829Z,99.90
2018-05-18T22:53:37.572Z,99.90
2018-05-18T22:56:04.192Z,99.90
2018-05-18T22:58:30.846Z,99.90
2018-05-18T23:00:57.484Z,99.90
2018-05-18T23:03:24.128Z,99.90
2018-05-18T23:05:50.709Z,99.90
2018-05-18T23:08:18.113Z,99.90
2018-05-18T23:10:44.825Z,99.90
2018-05-18T23:13:11.491Z,99.90
2018-05-18T23:15:38.185Z,99.90
2018-05-18T23:18:05.689Z,99.90
2018-05-18T23:20:32.401Z,99.90
2018-05-18T23:22:59.033Z,99.90
2018-05-18T23:25:25.600Z,99.90
2018-05-18T23:27:52.342Z,99.90
2018-05-18T23:30:19.097Z,99.90
2018-05-18T23:32:47.249Z,99.90
2018-05-18T23:35:13.965Z,99.90
2018-05-18T23:37:40.610Z,99.90
2018-05-18T23:40:07.245Z,99.90
2018-05-18T23:42:33.900Z,99.90
2018-05-18T23:45:00.619Z,99.90
2018-05-18T23:47:27.277Z,99.90
2018-05-18T23:49:53.994Z,99.90
2018-05-18T23:52:20.656Z,99.90
2018-05-18T23:54:47.249Z,99.90
2018-05-18T23:57:13.870Z,99.90
2018-05-18T23:59:41.282Z,99.90
